Time;durP1;ratioP1;P1;durP2;ratioP2;P2;SDS_P1;SDS_P2;PMS_P1;PMS_P2;Temp;Humidity;BMP_temperature;BMP_pressure;BME280_temperature;BME280_humidity;BME280_pressure;Samples;Min_cycle;Max_cycle;Signal;HPM_P1;HPM_P2
2021/03/21 00:00:22;;;;;;;1.23;1.20;;;18.60;65.70;;;;;;5039737;28;20033;-56
2021/03/21 00:02:48;;;;;;;1.13;1.10;;;18.60;65.80;;;;;;5047972;28;20037;-55
2021/03/21 00:05:13;;;;;;;2.25;1.30;;;18.60;65.60;;;;;;5050794;28;20033;-57
2021/03/21 00:07:39;;;;;;;1.92;1.33;;;18.60;65.60;;;;;;5048293;28;20033;-56
2021/03/21 00:10:05;;;;;;;1.42;1.33;;;18.60;65.60;;;;;;5049699;28;20146;-55
2021/03/21 00:12:31;;;;;;;1.88;1.30;;;18.60;65.50;;;;;;5036235;28;20024;-55
2021/03/21 00:14:57;;;;;;;1.52;1.42;;;18.60;65.50;;;;;;5051819;28;20383;-57
2021/03/21 00:17:22;;;;;;;1.50;1.40;;;18.50;65.60;;;;;;5050372;28;20130;-56
2021/03/21 00:19:48;;;;;;;1.40;1.30;;;18.50;65.50;;;;;;5049118;28;20025;-48
2021/03/21 00:22:14;;;;;;;1.55;1.45;;;18.50;65.60;;;;;;5050903;28;20029;-56
2021/03/21 00:24:39;;;;;;;1.60;1.50;;;18.50;65.60;;;;;;5039025;28;20040;-55
2021/03/21 00:27:05;;;;;;;1.40;1.30;;;18.50;65.60;;;;;;5050665;28;20025;-58
2021/03/21 00:29:30;;;;;;;1.67;1.52;;;18.50;65.80;;;;;;5050542;28;20036;-57
2021/03/21 00:31:56;;;;;;;1.40;1.30;;;18.50;65.70;;;;;;5049428;28;20087;-57
2021/03/21 00:34:22;;;;;;;1.50;1.40;;;18.50;65.50;;;;;;5050411;28;20086;-56
2021/03/21 00:36:47;;;;;;;1.27;1.17;;;18.50;65.40;;;;;;5050116;28;20027;-57
2021/03/21 00:39:13;;;;;;;1.30;1.20;;;18.50;65.40;;;;;;5050429;28;20025;-56
2021/03/21 00:41:39;;;;;;;1.95;1.13;;;18.40;65.50;;;;;;5052482;28;20162;-54
2021/03/21 00:44:05;;;;;;;1.10;1.00;;;18.40;65.40;;;;;;5048678;28;20506;-56
2021/03/21 00:46:31;;;;;;;1.60;1.48;;;18.40;65.60;;;;;;5050000;28;20067;-55
2021/03/21 00:48:56;;;;;;;2.00;1.17;;;18.40;65.50;;;;;;5049967;28;20025;-57
2021/03/21 00:51:22;;;;;;;1.10;1.10;;;18.40;65.20;;;;;;5050262;28;20033;-56
2021/03/21 00:53:47;;;;;;;1.50;1.40;;;18.50;65.30;;;;;;5052621;28;20059;-59
2021/03/21 00:56:29;;;;;;;1.30;1.20;;;18.50;65.10;;;;;;5041561;28;20538;-55
2021/03/21 00:58:55;;;;;;;1.40;1.30;;;18.50;65.10;;;;;;5041097;28;20067;-58
2021/03/21 01:01:20;;;;;;;1.67;1.60;;;18.50;65.30;;;;;;5048301;28;20036;-58
2021/03/21 01:03:46;;;;;;;1.48;1.17;;;18.40;65.20;;;;;;5053870;28;20032;-53
2021/03/21 01:06:12;;;;;;;1.45;1.35;;;18.50;65.00;;;;;;5049071;28;20041;-55
2021/03/21 01:08:38;;;;;;;1.30;1.30;;;18.50;65.10;;;;;;5050886;28;20027;-55
2021/03/21 01:11:16;;;;;;;1.10;1.00;;;18.50;64.90;;;;;;5049541;28;20035;-57
2021/03/21 01:13:42;;;;;;;1.35;1.25;;;18.50;65.50;;;;;;5048284;28;20082;-58
2021/03/21 01:16:10;;;;;;;1.77;1.67;;;18.50;64.70;;;;;;5048059;28;20135;-57
2021/03/21 01:18:36;;;;;;;1.20;1.20;;;18.50;64.70;;;;;;5048211;28;20060;-56
2021/03/21 01:21:02;;;;;;;1.25;1.13;;;18.50;64.80;;;;;;5050547;28;20064;-57
2021/03/21 01:23:28;;;;;;;1.92;1.83;;;18.50;64.80;;;;;;5051368;28;20021;-57
2021/03/21 01:25:53;;;;;;;1.00;1.00;;;18.50;64.80;;;;;;5047339;28;20036;-58
2021/03/21 01:28:26;;;;;;;1.63;1.52;;;18.50;64.80;;;;;;5040284;28;20017;-58
2021/03/21 01:30:54;;;;;;;1.10;1.10;;;18.40;64.70;;;;;;5048118;28;20075;-57
2021/03/21 01:33:19;;;;;;;1.63;1.52;;;18.40;64.60;;;;;;5048425;28;20086;-58
2021/03/21 01:35:47;;;;;;;1.25;1.25;;;18.40;64.90;;;;;;5051595;28;20117;-56
2021/03/21 01:38:13;;;;;;;1.10;1.10;;;18.40;64.60;;;;;;5049081;28;20028;-60
2021/03/21 01:40:38;;;;;;;1.38;1.27;;;18.40;64.80;;;;;;5045698;28;20036;-58
2021/03/21 01:43:04;;;;;;;1.60;1.50;;;18.40;64.90;;;;;;5041578;28;20013;-55
2021/03/21 01:45:39;;;;;;;1.20;1.20;;;18.40;64.70;;;;;;5054703;28;20055;-58
2021/03/21 01:48:27;;;;;;;1.35;1.25;;;18.40;64.70;;;;;;5056664;28;20096;-60
2021/03/21 01:50:57;;;;;;;6.18;2.00;;;18.40;64.70;;;;;;5046390;28;20041;-57
2021/03/21 01:53:25;;;;;;;1.02;1.02;;;18.40;64.70;;;;;;5054360;28;20031;-59
2021/03/21 01:55:51;;;;;;;1.40;1.30;;;18.40;65.00;;;;;;5054540;28;20570;-58
2021/03/21 01:58:18;;;;;;;1.15;1.15;;;18.40;65.00;;;;;;5051509;28;20023;-59
2021/03/21 02:00:44;;;;;;;1.40;1.40;;;18.40;64.70;;;;;;5055208;28;20049;-56
2021/03/21 02:03:09;;;;;;;1.27;1.17;;;18.40;64.70;;;;;;5055735;28;20024;-56
2021/03/21 02:05:38;;;;;;;1.42;1.38;;;18.40;65.60;;;;;;5047323;28;20037;-59
2021/03/21 02:08:22;;;;;;;1.35;1.30;;;18.40;64.80;;;;;;5054279;28;20076;-59
2021/03/21 02:10:51;;;;;;;1.00;1.00;;;18.40;64.60;;;;;;5051550;28;20131;-59
2021/03/21 02:13:21;;;;;;;1.15;1.15;;;18.50;64.60;;;;;;5051447;28;20033;-60
2021/03/21 02:16:28;;;;;;;1.17;1.17;;;18.50;64.40;;;;;;5054307;28;20029;-59
2021/03/21 02:19:17;;;;;;;1.20;1.20;;;18.50;64.20;;;;;;4984527;28;20026;-58
2021/03/21 02:21:58;;;;;;;1.58;1.23;;;18.50;64.20;;;;;;4965575;28;20112;-58
2021/03/21 02:24:48;;;;;;;1.15;1.00;;;18.50;64.00;;;;;;4979251;28;20027;-58
2021/03/21 02:27:30;;;;;;;1.20;1.20;;;18.50;64.10;;;;;;4984165;28;20065;-56
2021/03/21 02:30:05;;;;;;;1.10;1.10;;;18.50;64.10;;;;;;4995644;28;20069;-54
2021/03/21 02:32:40;;;;;;;1.10;1.10;;;18.40;64.20;;;;;;4980024;28;20065;-56
2021/03/21 02:35:15;;;;;;;1.20;1.20;;;18.40;64.20;;;;;;4976508;28;20142;-55
2021/03/21 02:38:07;;;;;;;1.23;1.23;;;18.40;64.00;;;;;;4991029;28;20037;-55
2021/03/21 02:40:39;;;;;;;1.55;1.40;;;18.40;64.00;;;;;;4978004;28;20057;-52
2021/03/21 02:43:27;;;;;;;1.20;1.10;;;18.40;63.90;;;;;;4967135;28;20439;-55
2021/03/21 02:45:54;;;;;;;1.00;1.00;;;18.50;64.00;;;;;;4977912;28;20034;-51
2021/03/21 02:48:26;;;;;;;1.00;1.00;;;18.50;63.90;;;;;;4963425;28;20026;-54
2021/03/21 02:50:54;;;;;;;1.45;1.35;;;18.40;63.80;;;;;;4995979;28;20034;-50
2021/03/21 02:53:22;;;;;;;1.20;1.10;;;18.40;63.80;;;;;;5029375;28;20494;-56
2021/03/21 02:55:48;;;;;;;1.40;1.30;;;18.40;63.80;;;;;;5050201;28;20113;-53
2021/03/21 02:58:31;;;;;;;0.90;0.90;;;18.40;63.80;;;;;;5033408;28;20029;-59
2021/03/21 03:01:00;;;;;;;1.10;1.10;;;18.40;63.90;;;;;;5040801;28;20442;-50
2021/03/21 03:03:26;;;;;;;1.30;1.30;;;18.40;64.00;;;;;;5035232;28;20021;-54
2021/03/21 03:05:52;;;;;;;1.05;1.05;;;18.30;64.00;;;;;;5053384;28;20491;-56
2021/03/21 03:08:28;;;;;;;1.58;1.25;;;18.30;63.80;;;;;;5047862;28;20025;-56
2021/03/21 03:11:03;;;;;;;0.90;0.90;;;18.40;63.90;;;;;;5043293;28;20114;-55
2021/03/21 03:13:40;;;;;;;0.90;0.90;;;18.30;64.00;;;;;;5025509;28;20487;-55
2021/03/21 03:16:14;;;;;;;1.15;1.15;;;18.40;63.90;;;;;;5046702;28;20081;-53
2021/03/21 03:19:01;;;;;;;1.30;1.30;;;18.40;63.90;;;;;;5049674;28;20025;-55
2021/03/21 03:21:33;;;;;;;1.10;1.10;;;18.30;63.90;;;;;;5044083;28;20071;-50
2021/03/21 03:24:11;;;;;;;1.35;1.25;;;18.40;63.80;;;;;;5040915;28;20029;-53
2021/03/21 03:26:47;;;;;;;1.20;1.15;;;18.30;63.90;;;;;;5036853;28;20022;-55
2021/03/21 03:29:39;;;;;;;1.00;1.00;;;18.30;63.90;;;;;;5030922;28;20037;-52
2021/03/21 03:32:08;;;;;;;1.40;1.30;;;18.30;63.90;;;;;;5039595;28;20044;-52
2021/03/21 03:34:33;;;;;;;1.17;1.17;;;18.30;63.90;;;;;;5049826;28;20025;-54
2021/03/21 03:36:59;;;;;;;1.10;1.10;;;18.30;63.70;;;;;;5046858;28;20494;-55
2021/03/21 03:39:25;;;;;;;1.00;1.00;;;18.30;63.80;;;;;;5050101;28;20086;-54
2021/03/21 03:42:00;;;;;;;0.90;0.90;;;18.30;63.70;;;;;;5053918;28;20040;-56
2021/03/21 03:44:47;;;;;;;1.10;1.10;;;18.30;63.70;;;;;;5051627;28;20036;-57
2021/03/21 03:47:25;;;;;;;1.30;1.30;;;18.30;64.00;;;;;;5037292;28;20071;-55
2021/03/21 03:50:19;;;;;;;0.88;0.88;;;18.30;63.60;;;;;;5046644;28;20063;-55
2021/03/21 03:53:08;;;;;;;1.65;1.35;;;18.30;63.60;;;;;;5050943;28;20063;-56
2021/03/21 03:56:04;;;;;;;0.88;0.88;;;18.30;63.70;;;;;;5027138;28;20056;-56
2021/03/21 03:58:35;;;;;;;1.00;1.00;;;18.30;63.60;;;;;;5047997;28;20119;-57
2021/03/21 04:01:09;;;;;;;1.10;1.10;;;18.30;63.70;;;;;;5029973;28;20044;-57
2021/03/21 04:03:45;;;;;;;0.83;0.83;;;18.30;63.70;;;;;;5051020;28;20020;-57
2021/03/21 04:06:42;;;;;;;1.15;1.15;;;18.30;63.60;;;;;;5048591;28;20271;-55
2021/03/21 04:09:28;;;;;;;1.08;1.00;;;18.30;63.60;;;;;;5050017;28;20024;-52
2021/03/21 04:12:29;;;;;;;1.40;1.30;;;18.30;63.60;;;;;;5047947;28;20025;-57
2021/03/21 04:15:03;;;;;;;1.20;1.20;;;18.30;63.40;;;;;;5051468;28;20033;-57
2021/03/21 04:17:45;;;;;;;1.20;1.10;;;18.30;63.30;;;;;;5050921;28;20051;-46
2021/03/21 04:20:23;;;;;;;1.77;1.10;;;18.30;63.20;;;;;;5050569;28;20025;-57
2021/03/21 04:23:13;;;;;;;1.13;1.13;;;18.30;63.20;;;;;;5048710;28;20029;-57
2021/03/21 04:25:42;;;;;;;1.13;1.13;;;18.30;63.50;;;;;;5039516;28;20040;-58
2021/03/21 04:28:17;;;;;;;0.90;0.90;;;18.30;63.40;;;;;;5032868;28;20032;-57
2021/03/21 04:30:55;;;;;;;1.00;1.00;;;18.30;63.30;;;;;;5025305;28;20023;-57
2021/03/21 04:33:25;;;;;;;1.23;1.23;;;18.30;63.20;;;;;;5003687;28;20059;-57
2021/03/21 04:35:54;;;;;;;1.25;1.25;;;18.30;63.20;;;;;;5031913;28;20021;-58
2021/03/21 04:38:33;;;;;;;1.10;1.00;;;18.30;63.40;;;;;;5033532;28;20055;-58
2021/03/21 04:40:58;;;;;;;1.30;1.20;;;18.30;63.20;;;;;;5045615;28;20044;-58
2021/03/21 04:43:40;;;;;;;1.08;1.08;;;18.30;63.20;;;;;;5045737;28;20021;-58
2021/03/21 04:46:08;;;;;;;1.00;1.00;;;18.30;63.20;;;;;;5049959;28;20120;-58
2021/03/21 04:48:34;;;;;;;1.92;1.08;;;18.20;63.40;;;;;;5048243;28;20032;-59
2021/03/21 04:51:04;;;;;;;1.05;1.05;;;18.20;63.40;;;;;;5060531;28;20021;-58
2021/03/21 04:53:56;;;;;;;1.13;1.13;;;18.20;63.50;;;;;;5034560;28;20029;-58
2021/03/21 04:56:31;;;;;;;1.30;1.30;;;18.20;63.50;;;;;;5028242;28;20060;-57
2021/03/21 04:58:59;;;;;;;1.20;1.20;;;18.20;63.40;;;;;;5010344;28;20075;-59
2021/03/21 05:01:26;;;;;;;1.10;1.00;;;18.20;63.40;;;;;;5042206;28;20079;-56
2021/03/21 05:04:11;;;;;;;1.20;1.20;;;18.20;63.20;;;;;;5046392;28;20028;-58
2021/03/21 05:06:48;;;;;;;1.23;1.23;;;18.30;63.30;;;;;;5017236;28;20080;-58
2021/03/21 05:09:23;;;;;;;1.00;1.00;;;18.20;63.20;;;;;;5048420;28;20032;-60
2021/03/21 05:12:18;;;;;;;1.10;1.10;;;18.30;63.30;;;;;;5047313;28;20029;-58
2021/03/21 05:14:59;;;;;;;1.00;1.00;;;18.20;63.30;;;;;;5048230;28;20044;-58
2021/03/21 05:17:42;;;;;;;1.10;1.10;;;18.30;63.30;;;;;;5021425;28;20132;-56
2021/03/21 05:20:20;;;;;;;0.90;0.90;;;18.30;63.20;;;;;;5046737;28;20044;-58
2021/03/21 05:23:16;;;;;;;1.15;1.15;;;18.30;63.00;;;;;;5049059;28;20033;-59
2021/03/21 05:25:51;;;;;;;1.05;1.05;;;18.20;63.10;;;;;;5022893;28;20040;-57
2021/03/21 05:28:49;;;;;;;1.20;1.20;;;18.20;63.20;;;;;;5044661;28;20037;-59
2021/03/21 05:31:14;;;;;;;0.90;0.90;;;18.20;63.30;;;;;;5048397;28;20387;-58
2021/03/21 05:33:40;;;;;;;1.10;1.10;;;18.20;63.30;;;;;;5032001;28;20021;-54
2021/03/21 05:36:22;;;;;;;0.90;0.90;;;18.30;63.30;;;;;;5032115;28;20107;-57
2021/03/21 05:38:58;;;;;;;1.13;1.05;;;18.20;63.10;;;;;;5050932;28;20548;-56
2021/03/21 05:41:52;;;;;;;0.90;0.90;;;18.30;63.20;;;;;;5048937;28;20527;-57
2021/03/21 05:44:43;;;;;;;1.00;1.00;;;18.30;63.00;;;;;;5050789;28;20038;-58
2021/03/21 05:47:34;;;;;;;1.10;1.10;;;18.30;62.90;;;;;;5037066;28;20080;-53
2021/03/21 05:50:28;;;;;;;1.25;1.25;;;18.30;63.00;;;;;;5045175;28;20514;-60
2021/03/21 05:53:21;;;;;;;1.25;1.20;;;18.20;63.00;;;;;;5043460;28;20045;-58
2021/03/21 05:55:55;;;;;;;1.15;1.15;;;18.20;62.90;;;;;;5045041;28;20162;-58
2021/03/21 05:58:39;;;;;;;1.10;1.10;;;18.20;63.00;;;;;;5049377;28;20148;-57
2021/03/21 06:01:11;;;;;;;1.20;1.20;;;18.30;63.00;;;;;;5047870;28;20422;-58
2021/03/21 06:04:10;;;;;;;1.20;1.20;;;18.20;63.00;;;;;;5048214;28;20039;-59
2021/03/21 06:07:01;;;;;;;0.93;0.93;;;18.20;63.40;;;;;;5048172;28;20093;-58
2021/03/21 06:09:50;;;;;;;0.90;0.90;;;18.20;63.20;;;;;;5047360;28;20517;-58
2021/03/21 06:12:31;;;;;;;1.13;1.13;;;18.20;63.00;;;;;;5047222;28;20025;-57
2021/03/21 06:15:18;;;;;;;0.93;0.93;;;18.20;63.00;;;;;;5047022;28;20498;-57
2021/03/21 06:18:16;;;;;;;1.23;1.17;;;18.20;63.10;;;;;;5049178;28;20052;-59
2021/03/21 06:21:19;;;;;;;1.00;1.00;;;18.20;63.10;;;;;;5046376;28;20445;-58
2021/03/21 06:23:53;;;;;;;1.10;1.10;;;18.20;63.20;;;;;;5047398;28;20032;-59
2021/03/21 06:26:42;;;;;;;0.98;0.90;;;18.30;63.10;;;;;;5034657;28;20100;-59
2021/03/21 06:29:38;;;;;;;1.10;1.10;;;18.30;63.20;;;;;;5043021;28;20040;-59
2021/03/21 06:32:29;;;;;;;0.90;0.90;;;18.30;63.30;;;;;;5052495;28;20235;-58
2021/03/21 06:34:58;;;;;;;0.90;0.90;;;18.30;63.30;;;;;;5046971;28;20536;-60
2021/03/21 06:38:04;;;;;;;1.00;1.00;;;18.30;63.30;;;;;;5046888;28;20025;-59
2021/03/21 06:40:37;;;;;;;1.10;1.10;;;18.30;63.30;;;;;;4998290;28;20088;-58
2021/03/21 06:43:30;;;;;;;1.00;1.00;;;18.30;63.20;;;;;;5007451;28;20026;-59
2021/03/21 06:46:00;;;;;;;1.17;1.17;;;18.30;63.20;;;;;;4997974;28;20140;-59
2021/03/21 06:48:36;;;;;;;0.90;0.90;;;18.30;63.20;;;;;;5013770;28;20052;-59
2021/03/21 06:51:07;;;;;;;1.27;1.17;;;18.30;63.20;;;;;;5001129;28;20589;-59
2021/03/21 06:53:47;;;;;;;0.98;0.98;;;18.30;63.30;;;;;;5015207;28;20534;-59
2021/03/21 06:56:30;;;;;;;0.90;0.90;;;18.20;63.20;;;;;;5010446;28;20140;-60
2021/03/21 06:59:33;;;;;;;1.20;1.20;;;18.20;63.60;;;;;;5008270;28;20040;-59
2021/03/21 07:02:29;;;;;;;1.00;1.00;;;18.20;63.30;;;;;;5005022;28;20041;-59
2021/03/21 07:05:15;;;;;;;0.82;0.82;;;18.20;63.10;;;;;;5005248;28;20527;-59
2021/03/21 07:08:15;;;;;;;1.00;1.00;;;18.20;63.10;;;;;;4994958;28;20079;-59
2021/03/21 07:11:07;;;;;;;1.00;1.00;;;18.20;64.10;;;;;;4977599;28;20026;-59
2021/03/21 07:13:44;;;;;;;1.15;1.08;;;18.20;63.30;;;;;;5005059;28;20484;-59
2021/03/21 07:16:28;;;;;;;0.80;0.80;;;18.20;63.10;;;;;;5008362;28;20408;-59
2021/03/21 07:19:14;;;;;;;1.57;1.50;;;18.20;63.00;;;;;;5052722;28;20036;-59
2021/03/21 07:21:59;;;;;;;1.10;1.10;;;18.20;63.20;;;;;;5044814;28;20034;-62
2021/03/21 07:24:43;;;;;;;1.15;1.15;;;18.20;63.40;;;;;;5035135;28;20102;-57
2021/03/21 07:27:38;;;;;;;1.08;1.08;;;18.20;63.50;;;;;;5052291;28;20040;-60
2021/03/21 07:30:16;;;;;;;0.90;0.90;;;18.30;63.50;;;;;;5008561;28;20147;-59
2021/03/21 07:32:56;;;;;;;1.02;1.02;;;18.30;63.30;;;;;;4995900;28;20578;-59
2021/03/21 07:36:21;;;;;;;1.00;1.00;;;18.30;63.20;;;;;;5017837;28;20042;-59
2021/03/21 07:39:12;;;;;;;1.20;1.20;;;18.30;63.20;;;;;;4931000;29;20055;-59
2021/03/21 07:42:03;;;;;;;1.10;1.10;;;18.30;63.20;;;;;;4826962;29;20054;-59
2021/03/21 07:44:40;;;;;;;1.00;1.00;;;18.30;63.20;;;;;;4822190;29;20049;-53
2021/03/21 07:47:15;;;;;;;1.10;1.10;;;18.20;63.40;;;;;;4818150;29;20568;-59
2021/03/21 07:50:27;;;;;;;0.90;0.90;;;18.20;63.30;;;;;;4823119;29;20061;-57
2021/03/21 07:53:23;;;;;;;1.08;1.08;;;18.30;63.40;;;;;;4826324;29;20042;-59
2021/03/21 07:55:53;;;;;;;1.15;1.15;;;18.20;63.20;;;;;;4842993;29;20038;-57
2021/03/21 07:58:54;;;;;;;1.05;1.05;;;18.30;63.20;;;;;;4827402;29;20034;-59
2021/03/21 08:01:20;;;;;;;1.38;1.38;;;18.30;63.20;;;;;;4799764;29;20146;-56
2021/03/21 08:04:01;;;;;;;1.02;1.02;;;18.30;63.10;;;;;;4808549;29;20136;-58
2021/03/21 08:06:30;;;;;;;1.00;1.00;;;18.30;63.20;;;;;;4798566;29;20099;-61
2021/03/21 08:09:04;;;;;;;0.80;0.80;;;18.30;62.90;;;;;;4821604;29;20099;-59
2021/03/21 08:11:30;;;;;;;1.40;1.30;;;18.30;62.80;;;;;;4817689;29;20050;-60
2021/03/21 08:14:12;;;;;;;1.20;1.20;;;18.30;63.30;;;;;;4836376;29;20041;-58
2021/03/21 08:16:43;;;;;;;2.08;1.10;;;18.10;64.50;;;;;;4858234;29;20046;-59
2021/03/21 08:19:11;;;;;;;1.17;1.17;;;18.00;65.60;;;;;;4880470;29;20041;-55
2021/03/21 08:21:37;;;;;;;4.43;0.90;;;17.90;65.20;;;;;;4877590;29;20059;-60
2021/03/21 08:24:18;;;;;;;1.10;1.10;;;17.90;67.00;;;;;;4893612;29;20041;-58
2021/03/21 08:26:44;;;;;;;1.40;1.40;;;17.90;66.00;;;;;;4914178;28;20049;-60
2021/03/21 08:29:11;;;;;;;1.20;1.20;;;17.80;65.80;;;;;;4966677;28;20030;-54
2021/03/21 08:31:41;;;;;;;1.63;1.05;;;17.80;66.10;;;;;;4978573;28;20042;-59
2021/03/21 08:34:33;;;;;;;1.20;1.20;;;17.80;66.30;;;;;;4979933;28;20044;-59
2021/03/21 08:37:00;;;;;;;1.42;1.02;;;17.80;66.30;;;;;;5048948;28;20031;-58
2021/03/21 08:39:43;;;;;;;1.23;1.13;;;17.80;66.30;;;;;;5046688;28;20510;-58
2021/03/21 08:42:26;;;;;;;1.10;1.10;;;17.80;66.50;;;;;;5026506;28;20041;-60
2021/03/21 08:44:52;;;;;;;1.30;1.20;;;17.80;66.60;;;;;;5047130;28;20067;-59
2021/03/21 08:47:23;;;;;;;1.33;1.23;;;17.80;66.40;;;;;;5046619;28;20037;-58
2021/03/21 08:49:51;;;;;;;1.10;1.10;;;17.80;66.30;;;;;;5048103;28;20051;-58
2021/03/21 08:52:38;;;;;;;1.33;1.23;;;17.80;65.90;;;;;;5045733;28;20037;-54
2021/03/21 08:55:05;;;;;;;1.27;1.27;;;17.80;65.40;;;;;;5046170;28;20438;-59
2021/03/21 08:57:35;;;;;;;1.30;1.20;;;17.80;65.90;;;;;;5048473;28;20556;-59
2021/03/21 09:00:19;;;;;;;1.48;1.38;;;17.80;66.30;;;;;;5044776;28;20037;-59
2021/03/21 09:02:44;;;;;;;1.35;1.23;;;17.80;65.30;;;;;;5050205;28;20044;-59
2021/03/21 09:05:12;;;;;;;1.50;1.40;;;17.80;65.10;;;;;;5047374;28;20032;-56
2021/03/21 09:07:42;;;;;;;1.17;1.08;;;17.80;65.30;;;;;;5047832;28;20029;-58
2021/03/21 09:10:11;;;;;;;1.23;1.08;;;17.90;65.60;;;;;;5047525;28;20024;-59
2021/03/21 09:12:50;;;;;;;1.33;1.23;;;17.90;65.70;;;;;;5047110;28;20033;-57
2021/03/21 09:15:16;;;;;;;1.13;1.13;;;17.90;65.70;;;;;;5032305;28;20029;-57
2021/03/21 09:17:42;;;;;;;1.08;1.08;;;17.90;65.50;;;;;;5051297;28;20049;-57
2021/03/21 09:20:08;;;;;;;1.20;1.20;;;17.90;65.20;;;;;;5048642;28;20035;-57
2021/03/21 09:22:41;;;;;;;1.48;1.27;;;18.00;65.20;;;;;;5045077;28;20034;-57
2021/03/21 09:25:29;;;;;;;1.25;1.23;;;18.00;65.00;;;;;;5045923;28;20083;-60
2021/03/21 09:27:55;;;;;;;1.10;1.00;;;18.00;65.00;;;;;;5042629;28;20037;-56
2021/03/21 09:30:37;;;;;;;1.30;1.20;;;18.00;64.90;;;;;;5047351;28;20033;-55
2021/03/21 09:33:08;;;;;;;1.13;1.08;;;18.10;64.40;;;;;;5043366;28;20789;-48
2021/03/21 09:35:40;;;;;;;1.38;1.33;;;18.20;66.00;;;;;;5024797;28;20023;-45
2021/03/21 09:38:20;;;;;;;1.40;1.40;;;18.20;64.80;;;;;;5039659;28;20036;-59
2021/03/21 09:40:54;;;;;;;1.45;1.35;;;18.20;66.30;;;;;;5042296;28;20041;-55
2021/03/21 09:43:22;;;;;;;1.60;1.50;;;18.30;68.20;;;;;;5048381;28;20755;-60
2021/03/21 09:45:51;;;;;;;1.67;1.58;;;18.20;68.40;;;;;;5046859;28;20025;-59
2021/03/21 09:48:46;;;;;;;1.58;1.48;;;18.20;67.70;;;;;;5046218;28;20099;-62
2021/03/21 09:51:38;;;;;;;1.77;1.67;;;18.30;67.90;;;;;;5038182;28;20076;-61
2021/03/21 09:54:31;;;;;;;1.95;1.85;;;18.30;68.80;;;;;;5047147;28;20059;-61
2021/03/21 09:57:10;;;;;;;2.20;2.00;;;18.30;70.60;;;;;;5041075;28;20510;-55
2021/03/21 10:00:01;;;;;;;1.70;1.60;;;18.30;70.10;;;;;;5044870;28;20487;-61
2021/03/21 10:02:30;;;;;;;7.57;2.03;;;18.40;70.00;;;;;;5046730;28;20033;-58
2021/03/21 10:04:58;;;;;;;3.17;1.77;;;18.50;69.70;;;;;;5050566;28;20032;-62
2021/03/21 10:07:41;;;;;;;5.00;2.38;;;18.60;67.90;;;;;;5040279;28;20513;-61
2021/03/21 10:10:13;;;;;;;5.25;3.05;;;18.70;63.90;;;;;;5038810;28;20495;-60
2021/03/21 10:12:42;;;;;;;3.00;2.40;;;18.70;64.80;;;;;;5049887;28;20032;-62
2021/03/21 10:15:10;;;;;;;2.25;2.15;;;18.60;65.40;;;;;;5059421;28;20025;-60
2021/03/21 10:17:35;;;;;;;2.45;2.22;;;18.60;65.10;;;;;;5028356;28;20544;-61
2021/03/21 10:20:01;;;;;;;2.28;2.08;;;18.60;68.40;;;;;;5042198;28;20028;-61
2021/03/21 10:22:47;;;;;;;3.03;2.25;;;18.60;67.00;;;;;;5045230;28;20391;-58
2021/03/21 10:25:13;;;;;;;2.10;1.90;;;18.60;65.40;;;;;;5046900;28;20033;-60
2021/03/21 10:27:44;;;;;;;4.10;2.33;;;18.80;64.40;;;;;;5046145;28;20147;-62
2021/03/21 10:30:14;;;;;;;2.78;2.58;;;18.80;63.80;;;;;;5046381;28;20045;-60
2021/03/21 10:32:50;;;;;;;5.47;2.63;;;18.70;63.90;;;;;;5043574;28;20040;-60
2021/03/21 10:35:25;;;;;;;3.60;2.22;;;18.80;64.30;;;;;;5045917;28;20036;-62
2021/03/21 10:38:11;;;;;;;4.82;2.53;;;18.80;64.20;;;;;;5040578;28;20033;-59
2021/03/21 10:40:39;;;;;;;5.25;2.38;;;18.70;63.40;;;;;;5044177;28;20112;-57
2021/03/21 10:43:21;;;;;;;6.07;2.75;;;18.80;64.50;;;;;;5041924;28;20025;-55
2021/03/21 10:45:49;;;;;;;4.63;2.70;;;18.90;63.50;;;;;;5045114;28;20033;-57
2021/03/21 10:48:14;;;;;;;2.10;2.00;;;18.80;62.50;;;;;;5039869;28;20749;-46
2021/03/21 10:50:46;;;;;;;4.80;2.90;;;18.80;63.10;;;;;;5035697;28;20025;-45
2021/03/21 10:53:31;;;;;;;5.10;3.30;;;18.80;64.00;;;;;;5036670;28;20037;-50
2021/03/21 10:56:03;;;;;;;3.83;2.70;;;18.90;64.30;;;;;;5051088;28;20032;-50
2021/03/21 10:58:53;;;;;;;2.70;2.50;;;18.90;61.20;;;;;;5046542;28;20033;-50
2021/03/21 11:01:19;;;;;;;2.90;2.70;;;18.90;61.50;;;;;;4698557;28;10001389;-54
2021/03/21 11:03:59;;;;;;;10.48;3.10;;;19.00;60.60;;;;;;5042445;28;20128;-58
2021/03/21 11:06:30;;;;;;;4.30;2.70;;;19.00;61.00;;;;;;5017941;28;20060;-55
2021/03/21 11:08:55;;;;;;;5.00;2.28;;;19.00;61.30;;;;;;5048902;28;20498;-53
2021/03/21 11:11:23;;;;;;;5.18;2.58;;;19.10;61.10;;;;;;5047896;28;20041;-56
2021/03/21 11:13:49;;;;;;;3.47;2.90;;;19.20;60.70;;;;;;5047525;28;20525;-58
2021/03/21 11:16:20;;;;;;;3.42;3.13;;;19.20;59.70;;;;;;5048923;28;20040;-55
2021/03/21 11:18:51;;;;;;;3.53;3.17;;;19.00;62.10;;;;;;5050062;28;20103;-57
2021/03/21 11:21:20;;;;;;;4.95;4.13;;;19.00;63.90;;;;;;5051036;28;20049;-59
2021/03/21 11:23:47;;;;;;;4.85;4.35;;;18.90;65.50;;;;;;5041851;28;20073;-57
2021/03/21 11:26:24;;;;;;;5.32;4.05;;;18.90;66.00;;;;;;5044048;28;20048;-56
2021/03/21 11:28:52;;;;;;;4.47;3.50;;;18.90;64.40;;;;;;5050372;28;20029;-57
2021/03/21 11:31:48;;;;;;;4.28;3.85;;;19.00;63.50;;;;;;5040101;28;20379;-57
2021/03/21 11:34:34;;;;;;;4.57;3.90;;;19.10;62.40;;;;;;5039109;28;20072;-57
2021/03/21 11:37:00;;;;;;;4.18;3.75;;;19.10;63.20;;;;;;5043414;28;20051;-59
2021/03/21 11:39:32;;;;;;;7.18;3.10;;;19.20;62.10;;;;;;5050598;28;20613;-54
2021/03/21 11:41:57;;;;;;;4.20;3.80;;;19.20;62.20;;;;;;5044642;28;20506;-46
2021/03/21 11:44:30;;;;;;;3.47;3.17;;;19.20;61.30;;;;;;5043275;28;20037;-52
2021/03/21 11:47:10;;;;;;;3.85;3.55;;;19.20;61.50;;;;;;5048572;28;20028;-52
2021/03/21 11:49:35;;;;;;;4.45;3.22;;;19.20;61.90;;;;;;5050114;28;20021;-54
2021/03/21 11:52:02;;;;;;;3.58;3.05;;;19.20;61.90;;;;;;5035988;28;20558;-53
2021/03/21 11:54:28;;;;;;;4.13;2.65;;;19.20;62.10;;;;;;5067525;28;20033;-54
2021/03/21 11:57:01;;;;;;;6.38;2.88;;;19.30;62.80;;;;;;5046530;28;20096;-52
2021/03/21 11:59:31;;;;;;;3.63;2.42;;;19.20;63.60;;;;;;5033532;28;20033;-56
2021/03/21 12:01:57;;;;;;;4.00;2.50;;;19.20;63.30;;;;;;5028465;28;20044;-55
2021/03/21 12:04:31;;;;;;;2.60;2.50;;;19.20;63.50;;;;;;5045689;28;20036;-55
2021/03/21 12:06:59;;;;;;;2.70;2.50;;;19.20;63.80;;;;;;5036953;28;20034;-54
2021/03/21 12:09:36;;;;;;;6.97;2.50;;;19.10;63.70;;;;;;5030613;28;20040;-51
2021/03/21 12:12:34;;;;;;;3.97;2.65;;;19.10;64.00;;;;;;5044440;28;20093;-51
2021/03/21 12:15:00;;;;;;;2.92;2.63;;;19.10;66.60;;;;;;5037045;28;20082;-50
2021/03/21 12:17:26;;;;;;;3.42;2.55;;;19.10;65.40;;;;;;5040496;28;20052;-47
2021/03/21 12:19:53;;;;;;;2.13;1.92;;;19.00;66.40;;;;;;5040542;28;20406;-47
2021/03/21 12:22:29;;;;;;;4.03;2.58;;;19.00;66.70;;;;;;5038725;28;20128;-52
2021/03/21 12:24:57;;;;;;;3.50;2.42;;;19.00;65.80;;;;;;5021699;28;20025;-51
2021/03/21 12:27:30;;;;;;;2.90;2.60;;;19.00;66.80;;;;;;5031096;28;20025;-56
2021/03/21 12:30:28;;;;;;;5.97;3.10;;;19.00;66.80;;;;;;5024820;28;20566;-48
2021/03/21 12:32:56;;;;;;;2.75;2.45;;;19.00;65.80;;;;;;5032524;28;20135;-54
2021/03/21 12:35:22;;;;;;;2.95;2.47;;;19.00;66.10;;;;;;5026299;28;20517;-54
2021/03/21 12:37:54;;;;;;;4.80;2.10;;;19.00;66.40;;;;;;5039042;28;20490;-54
2021/03/21 12:40:41;;;;;;;5.47;2.60;;;19.00;66.50;;;;;;5036800;28;20517;-59
2021/03/21 12:43:25;;;;;;;2.38;2.20;;;18.90;65.90;;;;;;5041414;28;20068;-57
2021/03/21 12:46:11;;;;;;;2.67;2.40;;;18.90;65.60;;;;;;5039168;28;20065;-55
2021/03/21 12:48:50;;;;;;;2.50;2.10;;;18.90;66.10;;;;;;5032813;28;20591;-54
2021/03/21 12:51:36;;;;;;;2.67;2.40;;;18.90;65.40;;;;;;5040889;28;20035;-57
2021/03/21 12:54:02;;;;;;;2.42;2.03;;;19.10;64.50;;;;;;5040961;28;20040;-54
2021/03/21 12:56:28;;;;;;;3.90;1.98;;;19.10;65.20;;;;;;5029017;28;20028;-57
2021/03/21 12:58:54;;;;;;;3.08;2.38;;;19.20;64.70;;;;;;5037781;28;20025;-57
2021/03/21 13:01:22;;;;;;;4.22;2.00;;;19.10;65.20;;;;;;5047114;28;20083;-57
2021/03/21 13:03:48;;;;;;;3.38;2.33;;;18.90;65.10;;;;;;5047078;28;20029;-57
2021/03/21 13:06:13;;;;;;;3.47;2.50;;;18.80;64.90;;;;;;5045192;28;20029;-54
2021/03/21 13:08:39;;;;;;;2.38;2.20;;;18.80;65.10;;;;;;5047914;28;20024;-57
2021/03/21 13:11:06;;;;;;;2.10;2.00;;;18.80;65.00;;;;;;5048222;28;20101;-57
2021/03/21 13:13:33;;;;;;;4.32;2.03;;;18.80;65.10;;;;;;5046115;28;20442;-56
2021/03/21 13:15:59;;;;;;;5.63;2.40;;;18.70;65.20;;;;;;5046099;28;20045;-52
2021/03/21 13:18:25;;;;;;;6.70;3.00;;;18.70;65.30;;;;;;5048062;28;20079;-56
2021/03/21 13:20:53;;;;;;;2.00;1.90;;;18.70;65.70;;;;;;5049808;28;20025;-56
2021/03/21 13:23:19;;;;;;;3.10;2.30;;;18.70;65.50;;;;;;5047485;28;20033;-58
2021/03/21 13:25:45;;;;;;;2.35;2.10;;;18.70;65.40;;;;;;5046550;28;20014;-55
2021/03/21 13:28:11;;;;;;;3.72;2.00;;;18.70;65.20;;;;;;5048376;28;20067;-55